Time;durP1;ratioP1;P1;durP2;ratioP2;P2;SDS_P1;SDS_P2;PMS_P1;PMS_P2;Temp;Humidity;BMP_temperature;BMP_pressure;BME280_temperature;BME280_humidity;BME280_pressure;Samples;Min_cycle;Max_cycle;Signal;HPM_P1;HPM_P2
2021/07/27 00:01:12;;;;;;;30.27;13.20;;;;;;;;;;5081056;28;20059;-46
2021/07/27 00:03:39;;;;;;;23.02;12.40;;;;;;;;;;5109530;28;20023;-46
2021/07/27 00:06:06;;;;;;;29.83;12.23;;;;;;;;;;5112894;28;20031;-47
2021/07/27 00:08:35;;;;;;;26.13;10.43;;;25.90;99.90;;;;;;5108099;28;20027;-46
2021/07/27 00:11:01;;;;;;;21.63;9.48;;;25.60;99.90;;;;;;5109011;28;20474;-46
2021/07/27 00:13:27;;;;;;;19.27;9.05;;;25.50;99.90;;;;;;5108227;28;20050;-45
2021/07/27 00:15:53;;;;;;;24.10;9.63;;;;;;;;;;5107741;28;20428;-46
2021/07/27 00:18:19;;;;;;;22.40;10.15;;;25.10;99.90;;;;;;5109824;28;20375;-45
2021/07/27 00:20:45;;;;;;;23.55;11.02;;;;;;;;;;5111197;28;20032;-46
2021/07/27 00:23:12;;;;;;;22.38;11.70;;;24.70;99.90;;;;;;5105549;28;20027;-46
2021/07/27 00:25:40;;;;;;;24.52;10.73;;;24.70;99.90;;;;;;5111265;28;20043;-46
2021/07/27 00:28:05;;;;;;;23.23;10.95;;;24.70;99.90;;;;;;5110198;28;20035;-46
2021/07/27 00:30:34;;;;;;;23.10;10.23;;;24.60;99.90;;;;;;5108343;28;20028;-46
2021/07/27 00:33:00;;;;;;;20.15;9.68;;;24.60;99.90;;;;;;5108578;28;20041;-46
2021/07/27 00:35:28;;;;;;;25.45;11.23;;;;;;;;;;5098525;28;20043;-45
2021/07/27 00:38:10;;;;;;;20.88;8.90;;;;;;;;;;5110609;28;20043;-45
2021/07/27 00:40:39;;;;;;;20.35;8.98;;;24.40;99.90;;;;;;5108349;28;20039;-47
2021/07/27 00:43:16;;;;;;;16.42;8.73;;;24.50;99.90;;;;;;5091529;28;20492;-47
2021/07/27 00:45:43;;;;;;;17.67;8.30;;;24.60;99.90;;;;;;5107580;28;20027;-46
2021/07/27 00:48:09;;;;;;;15.65;8.50;;;24.70;99.90;;;;;;5111041;28;20462;-46
2021/07/27 00:50:41;;;;;;;22.60;8.32;;;24.90;99.90;;;;;;5105175;28;20028;-46
2021/07/27 00:53:07;;;;;;;17.73;9.30;;;25.20;99.90;;;;;;5099950;28;20771;-46
2021/07/27 00:55:34;;;;;;;20.52;8.82;;;;;;;;;;5088353;28;20130;-46
2021/07/27 00:58:03;;;;;;;17.90;8.45;;;;;;;;;;5107007;28;20032;-46
2021/07/27 01:00:29;;;;;;;20.00;10.00;;;;;;;;;;5104626;28;20130;-46
2021/07/27 01:02:55;;;;;;;21.27;9.73;;;;;;;;;;5111927;28;20024;-47
2021/07/27 01:05:21;;;;;;;19.05;8.25;;;;;;;;;;5106778;28;20160;-46
2021/07/27 01:07:49;;;;;;;23.02;9.82;;;;;;;;;;5108413;28;20039;-46
2021/07/27 01:10:19;;;;;;;24.20;11.60;;;;;;;;;;5103402;28;20355;-46
2021/07/27 01:12:48;;;;;;;16.55;9.27;;;;;;;;;;5107600;28;20051;-48
2021/07/27 01:15:15;;;;;;;20.65;9.55;;;;;;;;;;5097853;28;20126;-45
2021/07/27 01:17:41;;;;;;;26.70;11.13;;;;;;;;;;5111680;28;20036;-47
2021/07/27 01:39:35;;;;;;;19.65;10.13;;;;;;;;;;5077698;28;20043;-46
2021/07/27 01:42:22;;;;;;;24.60;11.20;;;;;;;;;;5093171;28;20024;-46
2021/07/27 01:44:48;;;;;;;20.05;10.07;;;;;;;;;;5092568;28;20056;-46
2021/07/27 01:47:21;;;;;;;24.83;12.10;;;;;;;;;;5093166;28;20371;-45
2021/07/27 01:49:47;;;;;;;28.27;13.20;;;;;;;;;;5090640;28;20129;-46
2021/07/27 01:52:14;;;;;;;29.75;11.63;;;;;;;;;;5073756;28;20434;-46
2021/07/27 01:54:41;;;;;;;22.45;10.90;;;;;;;;;;5090670;28;20403;-46
2021/07/27 01:57:16;;;;;;;19.75;11.32;;;;;;;;;;5090686;28;20032;-46
2021/07/27 01:59:42;;;;;;;26.05;11.45;;;;;;;;;;5090871;28;20039;-46
2021/07/27 02:02:08;;;;;;;18.90;10.73;;;;;;;;;;5090738;28;20028;-46
2021/07/27 02:04:34;;;;;;;22.75;11.40;;;;;;;;;;5090590;28;20040;-46
2021/07/27 02:07:00;;;;;;;23.20;10.52;;;;;;;;;;5090649;28;20035;-46
2021/07/27 02:09:32;;;;;;;28.73;11.82;;;;;;;;;;5090654;28;20115;-45
2021/07/27 02:12:01;;;;;;;;;;;;;;;;;;5091577;28;20132;-45
2021/07/27 02:15:03;;;;;;;25.15;11.30;;;;;;;;;;5093763;28;19915;-45
2021/07/27 02:17:13;;;;;;;19.48;10.93;;;;;;;;;;5094191;28;20034;-45
2021/07/27 02:19:39;;;;;;;19.02;10.75;;;;;;;;;;5093517;28;20534;-46
2021/07/27 02:22:05;;;;;;;23.65;11.38;;;;;;;;;;5076309;28;20028;-46
2021/07/27 02:24:32;;;;;;;25.27;10.50;;;;;;;;;;5075869;28;20039;-46
2021/07/27 02:26:58;;;;;;;18.13;10.43;;;;;;;;;;5076068;28;20029;-46
2021/07/27 02:29:24;;;;;;;17.10;9.80;;;;;;;;;;5076081;28;20028;-45
2021/07/27 02:31:50;;;;;;;20.38;11.23;;;;;;;;;;5076122;28;20361;-46
2021/07/27 02:34:16;;;;;;;17.48;10.65;;;;;;;;;;5075677;28;20036;-46
2021/07/27 02:36:42;;;;;;;24.92;10.95;;;;;;;;;;5076052;28;20021;-45
2021/07/27 02:39:08;;;;;;;22.08;12.45;;;;;;;;;;5073913;28;20112;-47
2021/07/27 02:41:34;;;;;;;21.15;10.77;;;;;;;;;;5074618;28;20025;-46
2021/07/27 02:44:01;;;;;;;22.63;11.27;;;;;;;;;;5075617;28;20036;-45
2021/07/27 02:46:27;;;;;;;20.73;11.02;;;;;;;;;;5075659;28;20036;-46
2021/07/27 02:48:53;;;;;;;22.92;12.10;;;;;;;;;;5075599;28;20559;-46
2021/07/27 02:51:22;;;;;;;28.05;12.38;;;;;;;;;;5073640;28;20056;-47
2021/07/27 02:53:48;;;;;;;26.92;13.15;;;;;;;;;;5073629;28;20036;-46
2021/07/27 02:56:15;;;;;;;24.50;11.82;;;;;;;;;;5069236;28;20035;-46
2021/07/27 02:58:41;;;;;;;24.58;11.63;;;;;;;;;;5055220;28;20057;-46
2021/07/27 03:01:07;;;;;;;26.60;12.52;;;;;;;;;;5053234;28;20095;-47
2021/07/27 03:03:35;;;;;;;27.95;13.95;;;;;;;;;;5055277;28;20036;-46
2021/07/27 03:06:02;;;;;;;22.52;11.55;;;;;;;;;;5055113;28;20033;-46
2021/07/27 03:08:51;;;;;;;21.70;11.95;;;;;;;;;;5053202;28;20033;-46
2021/07/27 03:11:17;;;;;;;29.33;12.80;;;;;;;;;;5055137;28;20037;-47
2021/07/27 03:13:44;;;;;;;21.48;11.88;;;;;;;;;;5069853;28;20037;-46
2021/07/27 03:16:19;;;;;;;24.60;12.00;;;;;;;;;;5086803;28;20067;-47
2021/07/27 03:18:47;;;;;;;22.85;10.27;;;;;;;;;;5089867;28;20467;-47
2021/07/27 03:21:17;;;;;;;18.08;10.43;;;;;;;;;;5075107;28;20036;-47
2021/07/27 03:23:44;;;;;;;21.83;10.60;;;;;;;;;;5074609;28;20032;-47
2021/07/27 03:26:10;;;;;;;23.83;10.15;;;;;;;;;;5089438;28;20106;-46
2021/07/27 03:28:36;;;;;;;24.42;10.75;;;23.30;99.90;;;;;;5074977;28;20051;-46
2021/07/27 03:31:02;;;;;;;20.30;10.02;;;;;;;;;;5089821;28;20064;-47
2021/07/27 03:33:28;;;;;;;26.33;12.05;;;;;;;;;;5072637;28;20047;-48
2021/07/27 03:35:54;;;;;;;20.63;11.05;;;;;;;;;;5072869;28;20036;-46
2021/07/27 03:38:20;;;;;;;21.83;12.48;;;23.20;99.90;;;;;;5072863;28;20124;-47
2021/07/27 03:40:46;;;;;;;25.42;10.68;;;23.50;99.90;;;;;;5074557;28;20383;-47
2021/07/27 03:43:12;;;;;;;24.35;10.95;;;23.70;99.90;;;;;;5089540;28;20033;-46
2021/07/27 03:45:38;;;;;;;28.60;11.40;;;23.90;99.90;;;;;;5074483;28;20632;-48
2021/07/27 03:48:03;;;;;;;27.42;11.45;;;24.00;99.90;;;;;;5074521;28;20032;-47
2021/07/27 03:50:29;;;;;;;21.40;11.18;;;24.00;99.90;;;;;;5074352;28;20039;-47
2021/07/27 03:52:55;;;;;;;25.20;11.60;;;24.10;99.90;;;;;;5038849;28;20040;-47
2021/07/27 03:55:21;;;;;;;30.55;12.50;;;24.30;99.90;;;;;;5074436;28;20356;-47
2021/07/27 03:57:46;;;;;;;21.50;11.52;;;24.50;99.90;;;;;;5074302;28;20048;-46
2021/07/27 04:00:13;;;;;;;23.42;12.60;;;24.60;99.90;;;;;;5074406;28;20028;-47
2021/07/27 04:02:39;;;;;;;20.75;11.68;;;24.50;99.90;;;;;;5022104;28;20085;-47
2021/07/27 04:05:05;;;;;;;27.05;12.90;;;24.40;99.90;;;;;;5074050;28;20119;-47
2021/07/27 04:07:31;;;;;;;23.77;12.18;;;24.30;99.90;;;;;;5072233;28;20036;-46
2021/07/27 04:10:07;;;;;;;24.27;11.57;;;24.30;99.90;;;;;;5074156;28;20028;-47
2021/07/27 04:12:36;;;;;;;23.15;12.18;;;24.20;99.90;;;;;;5071990;28;20135;-47
2021/07/27 04:15:02;;;;;;;31.50;15.30;;;24.20;99.90;;;;;;5071808;28;20375;-47
2021/07/27 04:17:28;;;;;;;24.33;13.07;;;24.10;99.90;;;;;;5073903;28;20025;-47
2021/07/27 04:19:54;;;;;;;19.02;12.70;;;24.10;99.90;;;;;;5088742;28;20032;-47
2021/07/27 04:22:19;;;;;;;26.13;14.13;;;24.20;99.90;;;;;;5038538;28;20037;-47
2021/07/27 04:24:45;;;;;;;22.33;12.23;;;24.40;99.90;;;;;;5071573;28;20051;-46
2021/07/27 04:27:11;;;;;;;24.23;11.35;;;24.60;99.90;;;;;;5071788;28;20128;-46
2021/07/27 04:29:37;;;;;;;25.20;13.07;;;24.70;99.90;;;;;;5073780;28;20025;-47
2021/07/27 04:32:03;;;;;;;28.08;13.02;;;24.70;99.90;;;;;;5070391;28;20654;-47
2021/07/27 04:34:28;;;;;;;20.80;13.02;;;24.80;99.90;;;;;;5071224;28;20121;-47
2021/07/27 04:36:54;;;;;;;23.95;11.93;;;25.00;99.90;;;;;;5073568;28;20028;-47
2021/07/27 04:39:20;;;;;;;30.15;12.40;;;25.20;99.90;;;;;;5073878;28;20120;-47
2021/07/27 04:41:46;;;;;;;21.50;12.45;;;25.20;99.90;;;;;;5061668;28;20039;-47
2021/07/27 04:44:11;;;;;;;21.98;13.48;;;25.20;99.80;;;;;;5053700;28;20028;-46
2021/07/27 04:46:37;;;;;;;20.23;10.95;;;25.20;99.90;;;;;;5068390;28;20045;-47
2021/07/27 04:49:03;;;;;;;22.98;11.68;;;25.10;99.90;;;;;;5053384;28;20029;-46
2021/07/27 04:51:30;;;;;;;16.40;10.95;;;25.30;99.90;;;;;;5059034;28;20067;-46
2021/07/27 04:54:01;;;;;;;18.85;12.73;;;25.30;99.80;;;;;;5053455;28;20041;-47
2021/07/27 04:56:27;;;;;;;29.48;13.38;;;25.20;96.50;;;;;;5053476;28;20040;-46
2021/07/27 04:58:52;;;;;;;22.88;13.65;;;25.50;96.40;;;;;;5051372;28;20029;-47
2021/07/27 05:01:18;;;;;;;26.83;13.85;;;25.60;97.10;;;;;;5053652;28;20111;-47
2021/07/27 05:03:44;;;;;;;25.05;12.95;;;25.80;99.40;;;;;;5053342;28;20468;-47
2021/07/27 05:06:10;;;;;;;24.15;13.57;;;25.70;98.40;;;;;;5053159;28;20388;-47
2021/07/27 05:08:35;;;;;;;30.48;16.88;;;25.70;98.30;;;;;;5053576;28;20112;-47
2021/07/27 05:11:02;;;;;;;24.88;16.20;;;25.70;99.30;;;;;;5053126;28;20120;-47
2021/07/27 05:13:28;;;;;;;26.25;14.90;;;25.90;99.30;;;;;;5053263;28;20031;-48
2021/07/27 05:15:54;;;;;;;22.45;12.80;;;25.90;96.20;;;;;;5047695;28;20044;-50
2021/07/27 05:18:20;;;;;;;23.58;13.00;;;25.90;95.80;;;;;;5070741;28;20032;-48
2021/07/27 05:20:46;;;;;;;21.15;12.57;;;26.00;94.00;;;;;;5065163;28;20031;-48
2021/07/27 05:23:11;;;;;;;21.02;12.70;;;25.90;93.60;;;;;;5067546;28;20041;-47
2021/07/27 05:25:39;;;;;;;20.67;11.52;;;26.10;93.40;;;;;;5057955;28;20078;-50
2021/07/27 05:28:08;;;;;;;23.58;10.95;;;26.30;92.50;;;;;;5062849;28;20037;-57
2021/07/27 05:30:34;;;;;;;19.17;11.15;;;26.20;92.00;;;;;;5061728;28;20444;-46
2021/07/27 05:33:02;;;;;;;23.08;11.20;;;26.40;91.90;;;;;;5062228;28;20036;-48
2021/07/27 05:35:28;;;;;;;28.48;11.70;;;26.50;92.00;;;;;;5061022;28;20041;-50
2021/07/27 05:37:53;;;;;;;26.60;11.75;;;26.50;91.20;;;;;;5059477;28;20033;-58
2021/07/27 05:40:19;;;;;;;19.15;9.85;;;26.50;91.80;;;;;;5062711;28;20426;-47
2021/07/27 05:42:45;;;;;;;20.65;11.40;;;26.80;91.40;;;;;;5061329;28;20025;-47
2021/07/27 05:45:11;;;;;;;17.60;10.52;;;27.00;91.40;;;;;;5027045;28;20044;-49
2021/07/27 05:47:36;;;;;;;14.75;10.48;;;27.00;91.60;;;;;;5087216;28;20483;-49
2021/07/27 05:50:04;;;;;;;21.27;10.98;;;27.10;91.40;;;;;;5076670;28;20025;-49
2021/07/27 05:52:29;;;;;;;21.75;9.75;;;27.20;91.90;;;;;;5076964;28;20348;-51
2021/07/27 05:54:55;;;;;;;21.88;10.65;;;27.30;92.70;;;;;;5075987;28;20033;-49
2021/07/27 05:57:21;;;;;;;19.65;11.10;;;27.40;96.30;;;;;;5074479;28;20114;-43
2021/07/27 05:59:46;;;;;;;19.65;10.13;;;27.70;96.70;;;;;;5074695;28;20081;-48
2021/07/27 06:02:12;;;;;;;15.93;9.93;;;27.80;96.10;;;;;;5072606;28;20045;-49
2021/07/27 06:04:38;;;;;;;16.50;10.13;;;28.00;96.00;;;;;;5090950;28;20029;-50
2021/07/27 06:07:04;;;;;;;16.98;10.05;;;28.20;95.80;;;;;;5076714;28;20478;-45
2021/07/27 06:09:30;;;;;;;18.20;10.65;;;28.40;95.30;;;;;;5071599;28;20071;-49
2021/07/27 06:11:56;;;;;;;23.05;11.38;;;28.60;95.50;;;;;;5037759;28;20048;-49
2021/07/27 06:14:21;;;;;;;19.38;10.07;;;28.70;93.20;;;;;;5059797;28;20035;-49
2021/07/27 06:16:47;;;;;;;16.10;9.23;;;28.90;95.40;;;;;;5077464;28;20051;-49
2021/07/27 06:19:13;;;;;;;17.60;10.00;;;29.10;95.20;;;;;;5044055;28;20031;-49
2021/07/27 06:21:40;;;;;;;18.00;10.02;;;29.20;93.60;;;;;;5096537;28;20127;-49
2021/07/27 06:24:07;;;;;;;21.52;10.80;;;29.30;93.00;;;;;;5096280;28;20577;-49
2021/07/27 06:26:32;;;;;;;20.08;10.80;;;29.30;91.70;;;;;;5096235;28;20032;-49
2021/07/27 06:29:00;;;;;;;18.40;9.60;;;29.40;90.80;;;;;;5096374;28;20043;-49
2021/07/27 06:31:26;;;;;;;17.77;10.63;;;29.40;90.50;;;;;;5077602;28;20036;-49
2021/07/27 06:33:52;;;;;;;17.13;9.35;;;29.50;90.60;;;;;;5096293;28;20085;-49
2021/07/27 06:36:18;;;;;;;19.08;9.52;;;29.60;88.30;;;;;;5077305;28;20032;-49
2021/07/27 06:38:43;;;;;;;19.35;9.68;;;29.70;87.30;;;;;;5043679;28;20043;-50
2021/07/27 06:41:10;;;;;;;20.02;9.57;;;29.60;86.90;;;;;;5110942;28;20339;-49
2021/07/27 06:43:38;;;;;;;21.20;9.05;;;29.50;86.80;;;;;;5116423;28;20077;-49
2021/07/27 06:46:04;;;;;;;15.60;9.48;;;29.70;86.70;;;;;;5114028;28;20142;-49
2021/07/27 06:48:30;;;;;;;19.90;9.77;;;29.90;87.50;;;;;;5112865;28;20100;-49
2021/07/27 06:50:55;;;;;;;15.55;10.05;;;30.00;86.30;;;;;;5095715;28;20482;-49
2021/07/27 06:53:23;;;;;;;18.90;9.07;;;30.20;85.10;;;;;;5114544;28;20080;-49
2021/07/27 06:55:49;;;;;;;18.67;8.63;;;30.40;83.30;;;;;;5109018;28;20028;-49
2021/07/27 06:58:15;;;;;;;18.55;8.43;;;30.50;81.30;;;;;;5105152;28;20023;-49
2021/07/27 07:00:41;;;;;;;13.93;8.20;;;30.70;82.70;;;;;;5107241;27;20016;-50
2021/07/27 07:03:07;;;;;;;19.95;9.35;;;31.00;85.40;;;;;;5067670;28;20122;-49
2021/07/27 07:05:33;;;;;;;17.83;8.82;;;31.20;83.00;;;;;;5095768;28;20024;-49
2021/07/27 07:07:59;;;;;;;17.88;8.02;;;31.50;75.00;;;;;;5099036;28;20633;-50
2021/07/27 07:10:25;;;;;;;18.63;8.68;;;31.50;72.20;;;;;;5106930;28;20311;-46
2021/07/27 07:12:51;;;;;;;20.08;8.85;;;31.60;75.40;;;;;;5082037;28;20032;-47
2021/07/27 07:15:16;;;;;;;15.65;8.60;;;31.80;88.90;;;;;;5086680;28;20047;-48
2021/07/27 07:17:42;;;;;;;19.75;8.32;;;31.50;73.80;;;;;;5085745;28;20034;-46
2021/07/27 07:20:08;;;;;;;19.25;7.93;;;31.40;73.40;;;;;;5082818;28;20169;-48
2021/07/27 07:22:35;;;;;;;22.58;9.20;;;31.60;70.90;;;;;;5058695;28;20036;-46
2021/07/27 07:25:01;;;;;;;20.25;9.93;;;31.90;72.30;;;;;;5105446;28;20028;-47
2021/07/27 07:27:27;;;;;;;18.00;8.18;;;32.20;80.00;;;;;;5104025;28;20027;-48
2021/07/27 07:29:54;;;;;;;17.60;8.70;;;32.40;71.60;;;;;;5105441;28;20099;-46
2021/07/27 07:32:20;;;;;;;19.30;8.73;;;32.40;72.80;;;;;;5105159;28;20039;-47
2021/07/27 07:34:46;;;;;;;18.55;9.20;;;32.50;70.80;;;;;;5084276;28;20386;-47
2021/07/27 07:37:12;;;;;;;19.38;9.60;;;32.50;70.00;;;;;;5095170;28;20024;-46
2021/07/27 07:39:38;;;;;;;18.40;9.77;;;32.70;69.90;;;;;;5094492;28;20103;-46
2021/07/27 07:42:05;;;;;;;16.40;9.10;;;32.70;69.20;;;;;;5107379;28;20483;-46
2021/07/27 07:44:32;;;;;;;16.20;8.63;;;32.80;69.40;;;;;;5099669;28;20374;-48
2021/07/27 07:46:58;;;;;;;19.20;8.98;;;32.80;69.00;;;;;;5075819;28;20067;-48
2021/07/27 07:49:23;;;;;;;19.50;9.20;;;33.10;68.30;;;;;;5050322;28;20067;-46
2021/07/27 07:51:50;;;;;;;16.85;8.90;;;;;;;;;;5096180;28;20398;-47
2021/07/27 07:54:18;;;;;;;18.48;8.88;;;33.70;92.70;;;;;;5109205;28;20448;-47
2021/07/27 07:56:44;;;;;;;16.90;8.90;;;;;;;;;;5106285;28;20115;-47
2021/07/27 07:59:10;;;;;;;18.60;7.47;;;34.10;66.40;;;;;;5104700;28;20035;-49
2021/07/27 08:01:37;;;;;;;19.70;8.95;;;33.90;64.30;;;;;;5105912;28;20028;-47
2021/07/27 08:04:03;;;;;;;15.60;8.40;;;34.10;64.50;;;;;;5106731;28;20012;-47
2021/07/27 08:06:30;;;;;;;18.58;8.30;;;34.00;64.30;;;;;;5106575;28;20023;-46
2021/07/27 08:08:57;;;;;;;21.60;8.75;;;;;;;;;;5105806;28;20035;-49
2021/07/27 08:11:23;;;;;;;14.68;8.32;;;34.40;64.00;;;;;;5105845;28;20031;-51
2021/07/27 08:13:52;;;;;;;16.70;7.68;;;34.50;63.90;;;;;;5098257;28;20055;-47
2021/07/27 08:16:18;;;;;;;20.13;8.20;;;34.60;67.60;;;;;;5100479;28;20097;-49
2021/07/27 08:18:43;;;;;;;17.73;8.82;;;34.50;63.70;;;;;;5099073;28;20031;-47
2021/07/27 08:21:09;;;;;;;16.33;8.43;;;;;;;;;;5074998;28;20036;-48
2021/07/27 08:23:40;;;;;;;18.92;7.97;;;34.90;64.30;;;;;;5093489;28;20116;-47
2021/07/27 08:26:06;;;;;;;24.10;8.40;;;;;;;;;;5058954;28;20108;-47
2021/07/27 08:28:32;;;;;;;17.30;7.40;;;;;;;;;;5075116;28;20042;-48
2021/07/27 08:30:58;;;;;;;18.65;7.30;;;35.40;62.80;;;;;;5093550;28;20020;-47
2021/07/27 08:33:24;;;;;;;17.60;7.93;;;35.60;61.70;;;;;;5111774;28;20057;-47
2021/07/27 08:35:51;;;;;;;17.38;7.05;;;35.90;63.40;;;;;;5061850;28;20036;-46
2021/07/27 08:38:17;;;;;;;20.45;7.38;;;36.20;61.00;;;;;;5114572;28;20034;-46
2021/07/27 08:40:48;;;;;;;14.73;6.03;;;36.30;56.70;;;;;;5114398;28;20494;-47
2021/07/27 08:43:16;;;;;;;17.00;6.53;;;;;;;;;;5114563;28;20035;-46
2021/07/27 08:45:43;;;;;;;16.58;6.30;;;;;;;;;;5114279;28;20039;-47
2021/07/27 08:48:09;;;;;;;15.88;6.00;;;36.80;56.50;;;;;;5114360;28;20110;-47
2021/07/27 08:50:35;;;;;;;13.15;6.35;;;36.80;56.70;;;;;;5095624;28;20058;-47
2021/07/27 08:53:01;;;;;;;16.80;5.85;;;36.70;56.40;;;;;;5095171;28;20090;-46
2021/07/27 08:55:27;;;;;;;16.50;6.20;;;36.80;56.70;;;;;;5095487;28;20378;-47
2021/07/27 08:57:57;;;;;;;14.43;6.07;;;37.00;57.20;;;;;;5114276;28;20024;-47
2021/07/27 09:00:23;;;;;;;20.02;6.18;;;36.80;54.80;;;;;;5114094;28;20027;-47
2021/07/27 09:02:49;;;;;;;14.48;5.80;;;36.80;54.90;;;;;;5095012;28;20036;-46
2021/07/27 09:05:15;;;;;;;14.27;6.10;;;37.10;54.60;;;;;;5112136;28;20051;-46
2021/07/27 09:07:41;;;;;;;19.48;5.68;;;37.00;54.20;;;;;;5094961;28;20039;-48
2021/07/27 09:10:13;;;;;;;13.05;5.55;;;37.40;77.30;;;;;;5114195;28;20039;-47
2021/07/27 09:12:51;;;;;;;14.65;6.50;;;37.50;72.00;;;;;;5114129;28;20019;-47
2021/07/27 09:15:18;;;;;;;12.70;5.78;;;37.50;72.30;;;;;;5113740;28;20398;-46
2021/07/27 09:17:54;;;;;;;15.82;6.00;;;;;;;;;;5113873;28;20081;-47
2021/07/27 09:20:29;;;;;;;16.75;6.38;;;;;;;;;;5114308;28;20028;-48
2021/07/27 09:22:56;;;;;;;15.73;7.13;;;;;;;;;;5117856;28;20024;-47
2021/07/27 09:25:26;;;;;;;20.10;12.65;;;;;;;;;;5116201;28;20044;-47
2021/07/27 09:28:04;;;;;;;21.13;11.98;;;;;;;;;;5118102;28;20077;-46
2021/07/27 09:30:31;;;;;;;15.90;7.63;;;;;;;;;;5118031;28;20475;-46
2021/07/27 09:33:00;;;;;;;17.35;7.40;;;38.30;86.90;;;;;;5117941;28;20015;-46
2021/07/27 09:35:29;;;;;;;16.13;7.78;;;;;;;;;;5118110;28;20032;-47
2021/07/27 09:38:06;;;;;;;13.50;7.03;;;;;;;;;;5115728;28;20042;-46
2021/07/27 09:40:32;;;;;;;15.13;6.82;;;;;;;;;;5118194;28;20043;-47
2021/07/27 09:42:59;;;;;;;16.88;6.03;;;;;;;;;;5114980;28;20085;-46
2021/07/27 09:45:26;;;;;;;13.07;5.57;;;;;;;;;;5117556;28;20041;-46
2021/07/27 09:47:54;;;;;;;14.18;5.63;;;;;;;;;;5117723;28;20498;-46
2021/07/27 09:50:22;;;;;;;17.13;5.40;;;;;;;;;;5117419;28;20024;-49
2021/07/27 09:52:48;;;;;;;14.88;6.68;;;;;;;;;;5116848;28;20024;-47
2021/07/27 09:55:14;;;;;;;14.80;5.85;;;;;;;;;;5064660;28;20056;-49
2021/07/27 09:57:41;;;;;;;16.25;6.45;;;;;;;;;;5088885;28;20032;-52
2021/07/27 10:00:07;;;;;;;15.90;5.05;;;;;;;;;;5096813;28;20058;-52
2021/07/27 10:02:38;;;;;;;14.68;5.82;;;;;;;;;;5094726;28;20035;-48
2021/07/27 10:05:05;;;;;;;16.23;5.72;;;;;;;;;;5096800;28;20351;-51
2021/07/27 10:07:31;;;;;;;16.20;5.53;;;;;;;;;;5077403;28;20114;-49
2021/07/27 10:10:08;;;;;;;19.02;5.82;;;38.40;67.10;;;;;;5094840;28;20132;-53
2021/07/27 10:12:35;;;;;;;19.00;6.15;;;38.80;67.00;;;;;;5096755;28;20103;-53
2021/07/27 10:15:15;;;;;;;13.63;5.03;;;39.30;66.10;;;;;;5096329;28;20127;-51
2021/07/27 10:17:54;;;;;;;16.70;6.05;;;39.10;65.30;;;;;;5096928;28;20032;-52
2021/07/27 10:20:25;;;;;;;11.60;5.22;;;38.80;64.20;;;;;;5077434;28;20031;-47
2021/07/27 10:22:51;;;;;;;16.17;4.97;;;38.90;64.80;;;;;;5104018;28;20023;-51
2021/07/27 10:25:17;;;;;;;15.80;4.97;;;39.40;64.70;;;;;;5104951;28;20047;-52
2021/07/27 10:27:49;;;;;;;16.75;5.85;;;39.40;49.20;;;;;;5095804;28;20023;-47
2021/07/27 10:30:16;;;;;;;12.70;4.72;;;39.40;51.40;;;;;;5108311;28;20395;-49
2021/07/27 10:32:54;;;;;;;13.80;5.28;;;39.30;51.10;;;;;;5107416;27;20038;-47
2021/07/27 10:35:33;;;;;;;12.98;5.07;;;39.20;52.40;;;;;;5103010;28;20027;-47
2021/07/27 10:38:13;;;;;;;13.38;4.85;;;39.00;49.50;;;;;;5066381;28;20093;-47
2021/07/27 10:40:43;;;;;;;15.90;5.50;;;38.70;49.10;;;;;;5083336;28;20108;-47
2021/07/27 10:43:09;;;;;;;16.08;4.93;;;38.50;48.90;;;;;;5081721;28;20398;-56
2021/07/27 10:45:36;;;;;;;15.38;5.85;;;38.70;48.10;;;;;;5077387;28;20029;-47
2021/07/27 10:48:02;;;;;;;16.27;5.28;;;39.20;50.60;;;;;;5068450;28;20109;-46
2021/07/27 10:50:30;;;;;;;20.50;5.93;;;39.70;52.10;;;;;;5057931;28;20033;-47
2021/07/27 10:53:22;;;;;;;14.80;5.93;;;40.20;70.90;;;;;;5033222;28;20060;-47
2021/07/27 10:55:52;;;;;;;20.63;6.63;;;40.20;52.20;;;;;;5032116;28;20049;-50
2021/07/27 10:58:19;;;;;;;15.13;5.45;;;40.30;54.40;;;;;;4955855;28;20043;-47
2021/07/27 11:00:44;;;;;;;17.23;6.22;;;40.40;54.00;;;;;;4984801;28;20397;-47
2021/07/27 11:03:10;;;;;;;12.73;6.22;;;40.70;62.20;;;;;;4981571;28;20031;-49
2021/07/27 11:05:36;;;;;;;22.77;6.65;;;40.60;53.70;;;;;;4983339;28;20442;-49
2021/07/27 11:08:03;;;;;;;16.25;6.43;;;40.40;52.70;;;;;;4972769;28;20034;-51
2021/07/27 11:10:33;;;;;;;17.15;6.45;;;40.40;52.50;;;;;;4989850;28;20038;-46
2021/07/27 11:12:59;;;;;;;15.40;6.13;;;40.60;54.00;;;;;;4995679;28;20501;-47
2021/07/27 11:15:26;;;;;;;22.95;7.75;;;40.50;54.00;;;;;;4996327;28;20506;-46
2021/07/27 11:17:58;;;;;;;12.68;6.00;;;40.70;56.40;;;;;;5001121;28;20124;-46
2021/07/27 11:20:26;;;;;;;18.02;6.30;;;;;;;;;;5001603;28;20026;-47
2021/07/27 11:22:54;;;;;;;17.25;7.07;;;40.70;66.30;;;;;;5002982;28;20033;-46
2021/07/27 11:25:22;;;;;;;14.20;6.78;;;40.70;76.70;;;;;;5002026;28;20030;-47
2021/07/27 11:27:49;;;;;;;16.58;6.43;;;40.40;75.60;;;;;;4984731;28;20045;-48
2021/07/27 11:30:15;;;;;;;19.85;6.40;;;40.80;77.60;;;;;;5012306;28;20398;-47
2021/07/27 11:32:49;;;;;;;13.52;5.82;;;41.00;75.40;;;;;;5092975;28;20040;-48
2021/07/27 11:35:17;;;;;;;13.43;5.10;;;41.10;76.00;;;;;;5092768;28;20600;-46
2021/07/27 11:37:44;;;;;;;15.48;6.15;;;40.70;77.70;;;;;;5059204;28;20055;-46
2021/07/27 11:40:24;;;;;;;13.68;5.65;;;40.60;76.20;;;;;;5092977;28;20552;-47
2021/07/27 11:43:09;;;;;;;14.95;5.80;;;40.50;77.30;;;;;;5085067;28;20035;-49
2021/07/27 11:45:40;;;;;;;13.20;5.55;;;40.80;76.30;;;;;;5102379;28;20043;-46
2021/07/27 11:48:07;;;;;;;16.98;6.25;;;40.60;75.70;;;;;;5099403;28;20078;-46
2021/07/27 11:50:36;;;;;;;16.88;4.78;;;40.70;75.80;;;;;;5084955;28;20107;-47
2021/07/27 11:53:05;;;;;;;14.07;5.20;;;40.60;75.50;;;;;;5104304;28;20039;-45
2021/07/27 11:55:38;;;;;;;14.30;5.10;;;40.60;75.40;;;;;;5082210;28;20043;-45
2021/07/27 11:58:06;;;;;;;12.77;5.18;;;40.30;74.50;;;;;;5077451;28;20043;-46
2021/07/27 12:00:34;;;;;;;14.13;4.95;;;40.40;75.20;;;;;;5080585;28;20047;-45
2021/07/27 12:03:00;;;;;;;16.83;5.30;;;39.80;75.60;;;;;;5081851;28;20036;-46
2021/07/27 12:05:27;;;;;;;19.67;6.05;;;;;;;;;;5046417;28;20177;-45
2021/07/27 12:07:53;;;;;;;15.55;5.38;;;;;;;;;;5080264;28;20031;-45
2021/07/27 12:10:19;;;;;;;15.07;5.75;;;;;;;;;;5064743;28;20028;-45
2021/07/27 12:12:46;;;;;;;14.57;4.65;;;;;;;;;;5079926;28;20032;-46
2021/07/27 12:15:13;;;;;;;13.63;4.70;;;;;;;;;;5046482;28;20554;-47
2021/07/27 12:17:42;;;;;;;14.95;5.90;;;;;;;;;;5079739;28;20030;-45
2021/07/27 12:20:10;;;;;;;16.25;5.63;;;;;;;;;;5045969;28;20039;-46
2021/07/27 12:22:36;;;;;;;18.17;5.22;;;;;;;;;;5061696;28;20048;-45
2021/07/27 12:25:03;;;;;;;15.88;5.05;;;;;;;;;;5081686;28;20549;-46
2021/07/27 12:27:29;;;;;;;11.45;5.32;;;;;;;;;;5095321;28;20053;-45
2021/07/27 12:29:55;;;;;;;18.95;4.70;;;;;;;;;;5103190;28;20020;-46
2021/07/27 12:32:21;;;;;;;10.25;4.60;;;;;;;;;;5090007;28;20429;-46
2021/07/27 12:34:48;;;;;;;11.07;4.38;;;;;;;;;;5101011;28;20062;-46
2021/07/27 12:37:14;;;;;;;18.35;5.05;;;;;;;;;;5098874;28;20582;-46
2021/07/27 12:39:40;;;;;;;16.40;4.72;;;;;;;;;;5092423;28;20031;-46
2021/07/27 12:42:06;;;;;;;14.02;4.90;;;;;;;;;;5093884;28;20039;-45
2021/07/27 12:44:32;;;;;;;14.02;4.57;;;40.80;59.50;;;;;;5106947;28;20032;-46
2021/07/27 12:46:58;;;;;;;12.65;4.50;;;;;;;;;;5109277;28;20043;-48
2021/07/27 12:49:24;;;;;;;12.00;4.55;;;;;;;;;;5100702;28;20031;-47
2021/07/27 12:51:50;;;;;;;13.70;4.28;;;40.70;50.10;;;;;;5106957;28;20428;-51
2021/07/27 12:54:16;;;;;;;14.52;4.40;;;40.40;50.00;;;;;;5090323;28;20044;-48
2021/07/27 12:56:42;;;;;;;14.35;4.20;;;;;;;;;;5083368;28;20043;-52
2021/07/27 12:59:08;;;;;;;15.60;4.68;;;40.90;50.20;;;;;;5099564;28;20073;-49
2021/07/27 13:01:34;;;;;;;18.08;6.43;;;40.60;48.90;;;;;;5083424;28;20114;-49
2021/07/27 13:04:00;;;;;;;16.13;6.50;;;40.70;49.80;;;;;;5048020;28;20036;-50
2021/07/27 13:06:26;;;;;;;13.32;5.00;;;40.60;52.50;;;;;;5101000;28;20048;-49
2021/07/27 13:08:52;;;;;;;14.70;5.28;;;40.20;51.70;;;;;;5095903;28;20032;-49
2021/07/27 13:11:18;;;;;;;15.63;4.95;;;40.40;54.10;;;;;;5067726;28;20032;-46
2021/07/27 13:13:44;;;;;;;13.55;4.50;;;40.30;52.30;;;;;;5112121;28;20016;-48
2021/07/27 13:16:09;;;;;;;10.25;4.70;;;40.00;51.90;;;;;;5112369;28;20544;-49
2021/07/27 13:18:37;;;;;;;15.43;5.38;;;40.20;53.20;;;;;;5075378;28;20055;-49
2021/07/27 13:21:02;;;;;;;16.95;4.90;;;40.10;51.60;;;;;;5093443;28;20041;-48
2021/07/27 13:23:28;;;;;;;18.45;5.40;;;40.20;52.80;;;;;;5093622;28;20115;-47
2021/07/27 13:25:56;;;;;;;15.02;5.25;;;40.00;53.30;;;;;;5093155;28;20499;-48
2021/07/27 13:28:22;;;;;;;16.80;4.78;;;40.20;52.10;;;;;;5112287;28;20040;-48